Time;durP1;ratioP1;P1;durP2;ratioP2;P2;SDS_P1;SDS_P2;PMS_P1;PMS_P2;Temp;Humidity;BMP_temperature;BMP_pressure;BME280_temperature;BME280_humidity;BME280_pressure;Samples;Min_cycle;Max_cycle;Signal;HPM_P1;HPM_P2
2023/09/19 00:02:21;;;;;;;8.93;2.30;;;;;;;;;;6115040;23;20238;-92
2023/09/19 00:05:27;;;;;;;2.63;1.70;;;;;;;;;;6115359;23;20689;-90
2023/09/19 00:08:33;;;;;;;5.45;2.00;;;;;;;;;;6116745;23;20193;-91
2023/09/19 00:11:39;;;;;;;4.10;2.10;;;;;;;;;;6115549;23;20166;-91
2023/09/19 00:14:45;;;;;;;7.28;1.80;;;;;;;;;;6114762;23;20186;-91
2023/09/19 00:17:53;;;;;;;5.18;1.90;;;;;;;;;;6115865;23;20182;-91
2023/09/19 00:20:59;;;;;;;5.15;2.47;;;;;;;;;;6115797;23;20240;-91
2023/09/19 00:24:05;;;;;;;7.63;2.63;;;;;;;;;;6115848;23;20197;-91
2023/09/19 00:27:11;;;;;;;11.90;2.55;;;;;;;;;;6115441;23;20166;-91
2023/09/19 00:30:20;;;;;;;3.95;2.53;;;;;;;;;;6115112;23;20219;-92
2023/09/19 00:33:25;;;;;;;6.35;2.67;;;;;;;;;;6114206;23;20170;-89
2023/09/19 00:36:30;;;;;;;5.00;2.45;;;;;;;;;;6113545;23;20170;-92
2023/09/19 00:39:35;;;;;;;3.33;2.10;;;;;;;;;;6114411;23;20174;-92
2023/09/19 00:42:40;;;;;;;8.18;2.38;;;;;;;;;;6114465;23;20253;-90
2023/09/19 00:45:49;;;;;;;5.68;2.47;;;;;;;;;;6113516;23;20190;-91
2023/09/19 00:48:54;;;;;;;5.25;2.05;;;;;;;;;;6113667;23;20173;-90
2023/09/19 00:51:59;;;;;;;4.47;2.00;;;;;;;;;;6114112;23;20158;-91
2023/09/19 00:55:06;;;;;;;4.20;1.90;;;;;;;;;;6115416;23;20195;-94
2023/09/19 00:58:12;;;;;;;4.38;2.00;;;;;;;;;;6114410;23;20170;-92
2023/09/19 01:01:22;;;;;;;4.80;2.30;;;;;;;;;;6114838;23;20169;-93
2023/09/19 01:04:28;;;;;;;5.93;2.28;;;;;;;;;;6113982;23;20182;-90
2023/09/19 01:07:34;;;;;;;5.00;2.50;;;;;;;;;;6111094;23;20182;-90
2023/09/19 01:10:44;;;;;;;6.03;2.00;;;;;;;;;;6110890;23;20297;-92
2023/09/19 01:13:52;;;;;;;7.95;2.20;;;;;;;;;;6109272;23;20157;-91
2023/09/19 01:17:05;;;;;;;3.67;2.10;;;;;;;;;;6109435;23;20173;-93
2023/09/19 01:20:16;;;;;;;3.05;1.90;;;;;;;;;;6107042;23;20174;-90
2023/09/19 01:23:23;;;;;;;5.05;2.22;;;;;;;;;;6107188;23;20214;-91
2023/09/19 01:26:32;;;;;;;8.52;2.20;;;;;;;;;;6107754;23;20496;-91
2023/09/19 01:29:40;;;;;;;7.95;2.00;;;;;;;;;;6109382;23;20226;-90
2023/09/19 01:32:47;;;;;;;2.60;1.75;;;;;;;;;;6110048;23;20213;-92
2023/09/19 01:35:52;;;;;;;2.53;1.92;;;;;;;;;;6126457;23;20173;-90
2023/09/19 01:38:58;;;;;;;6.47;2.22;;;;;;;;;;6110868;23;20152;-91
2023/09/19 01:42:07;;;;;;;7.95;1.90;;;;;;;;;;6109940;23;20202;-92
2023/09/19 01:45:15;;;;;;;6.00;2.10;;;;;;;;;;6109877;23;20166;-90
2023/09/19 01:48:28;;;;;;;7.05;2.22;;;;;;;;;;6109342;23;20174;-92
2023/09/19 01:51:38;;;;;;;4.50;2.15;;;;;;;;;;6109617;23;20169;-88
2023/09/19 01:54:48;;;;;;;5.30;2.45;;;;;;;;;;6110376;23;20173;-91
2023/09/19 01:57:57;;;;;;;7.55;2.10;;;;;;;;;;6110315;23;20278;-94
2023/09/19 02:01:03;;;;;;;5.55;2.22;;;;;;;;;;6111122;23;20174;-91
2023/09/19 02:04:11;;;;;;;5.68;2.47;;;;;;;;;;6109901;23;20196;-91
2023/09/19 02:07:16;;;;;;;8.68;2.63;;;;;;;;;;6109183;23;20214;-88
2023/09/19 02:10:22;;;;;;;9.75;2.33;;;;;;;;;;6093420;23;20174;-91
2023/09/19 02:13:28;;;;;;;4.43;2.20;;;;;;;;;;6093609;23;20154;-91
2023/09/19 02:16:33;;;;;;;8.20;2.50;;;;;;;;;;6094632;23;20245;-92
2023/09/19 02:19:40;;;;;;;4.15;2.58;;;;;;;;;;6094865;23;20174;-90
2023/09/19 02:22:46;;;;;;;5.50;2.72;;;;;;;;;;6094010;23;20181;-90
2023/09/19 02:25:54;;;;;;;6.38;2.67;;;;;;;;;;6095732;23;20626;-93
2023/09/19 02:29:01;;;;;;;4.88;2.58;;;;;;;;;;6096252;23;20241;-93
2023/09/19 02:32:06;;;;;;;7.65;2.55;;;;;;;;;;6094822;23;20178;-91
2023/09/19 02:35:14;;;;;;;5.40;2.20;;;;;;;;;;6094590;23;20170;-91
2023/09/19 02:38:24;;;;;;;6.35;2.80;;;;;;;;;;6092861;23;20290;-92
2023/09/19 02:41:29;;;;;;;5.80;2.08;;;;;;;;;;6095501;23;20174;-93
2023/09/19 02:44:35;;;;;;;3.80;1.80;;;;;;;;;;6094017;23;20275;-92
2023/09/19 02:47:42;;;;;;;4.28;2.35;;;;;;;;;;6094595;23;20173;-91
2023/09/19 02:50:51;;;;;;;3.40;2.03;;;;;;;;;;6093891;23;20696;-93
2023/09/19 02:53:56;;;;;;;4.82;1.98;;;;;;;;;;6092907;23;20239;-92
2023/09/19 02:57:03;;;;;;;2.92;2.10;;;;;;;;;;6093665;23;20157;-93
2023/09/19 03:00:10;;;;;;;9.27;2.50;;;;;;;;;;6093104;23;20177;-91
2023/09/19 03:03:17;;;;;;;5.20;2.38;;;;;;;;;;6094133;23;20265;-91
2023/09/19 03:06:24;;;;;;;5.57;2.40;;;;;;;;;;6095494;23;20177;-92
2023/09/19 03:09:29;;;;;;;5.82;2.75;;;;;;;;;;6082155;23;20170;-92
2023/09/19 03:12:35;;;;;;;4.68;2.20;;;;;;;;;;6083023;23;20162;-92
2023/09/19 03:15:44;;;;;;;3.60;2.30;;;;;;;;;;6082072;23;20171;-92
2023/09/19 03:18:50;;;;;;;3.38;2.05;;;;;;;;;;6080602;23;20183;-91
2023/09/19 03:21:58;;;;;;;5.82;2.50;;;;;;;;;;6081273;23;20175;-94
2023/09/19 03:25:07;;;;;;;5.30;2.38;;;;;;;;;;6080066;23;20218;-91
2023/09/19 03:28:15;;;;;;;2.95;1.77;;;;;;;;;;6081890;23;20169;-90
2023/09/19 03:31:20;;;;;;;3.83;2.30;;;;;;;;;;6081774;23;20183;-92
2023/09/19 03:34:26;;;;;;;4.55;2.13;;;;;;;;;;6079371;23;20171;-92
2023/09/19 03:37:33;;;;;;;4.03;2.10;;;;;;;;;;6081680;23;20174;-92
2023/09/19 03:40:39;;;;;;;8.40;2.30;;;;;;;;;;6080670;23;20160;-92
2023/09/19 03:43:44;;;;;;;5.82;2.45;;;;;;;;;;6080658;23;20190;-93
2023/09/19 03:46:49;;;;;;;4.55;2.42;;;;;;;;;;6081348;23;20166;-91
2023/09/19 03:49:54;;;;;;;4.80;2.05;;;;;;;;;;6082589;23;20176;-91
2023/09/19 03:53:01;;;;;;;4.00;2.30;;;;;;;;;;6083623;23;20173;-91
2023/09/19 03:56:08;;;;;;;5.30;1.88;;;;;;;;;;6082557;23;20173;-93
2023/09/19 03:59:13;;;;;;;6.90;1.98;;;;;;;;;;6082381;23;20634;-91
2023/09/19 04:02:23;;;;;;;7.05;2.17;;;;;;;;;;6082418;23;20174;-93
2023/09/19 04:05:29;;;;;;;12.65;3.65;;;;;;;;;;6082341;23;20170;-93
2023/09/19 04:08:36;;;;;;;7.03;2.17;;;;;;;;;;6082501;23;20365;-93
2023/09/19 04:11:42;;;;;;;6.32;2.28;;;;;;;;;;6084587;23;20199;-92
2023/09/19 04:14:48;;;;;;;6.07;2.10;;;;;;;;;;6082241;23;20178;-93
2023/09/19 04:17:54;;;;;;;10.45;2.00;;;;;;;;;;6084002;23;20191;-93
2023/09/19 04:20:59;;;;;;;5.57;2.30;;;;;;;;;;6082679;23;20174;-88
2023/09/19 04:24:06;;;;;;;8.23;2.20;;;;;;;;;;6083020;23;20319;-89
2023/09/19 04:27:12;;;;;;;3.28;1.80;;;;;;;;;;6084409;23;20179;-91
2023/09/19 04:30:21;;;;;;;4.95;2.25;;;;;;;;;;6080684;23;20178;-91
2023/09/19 04:33:28;;;;;;;4.50;2.30;;;;;;;;;;6080206;23;20219;-93
2023/09/19 04:36:33;;;;;;;4.40;1.92;;;;;;;;;;6080588;23;20171;-91
2023/09/19 04:39:39;;;;;;;4.40;2.00;;;;;;;;;;6079918;23;20250;-91
2023/09/19 04:42:44;;;;;;;3.90;2.45;;;;;;;;;;6080847;23;20250;-91
2023/09/19 04:45:50;;;;;;;4.75;2.00;;;;;;;;;;6080554;23;20307;-91
2023/09/19 04:48:55;;;;;;;5.70;2.00;;;;;;;;;;6082104;23;20290;-91
2023/09/19 04:52:01;;;;;;;4.47;1.92;;;;;;;;;;6081389;23;20171;-90
2023/09/19 04:55:08;;;;;;;5.82;1.90;;;;;;;;;;6079031;23;20235;-91
2023/09/19 04:58:13;;;;;;;9.43;2.10;;;;;;;;;;6079569;23;20162;-93
2023/09/19 05:01:18;;;;;;;4.20;2.20;;;;;;;;;;6081716;23;20207;-93
2023/09/19 05:04:23;;;;;;;6.30;2.65;;;;;;;;;;6081200;23;20287;-90
2023/09/19 05:07:31;;;;;;;5.03;2.08;;;;;;;;;;6086906;23;20250;-90
2023/09/19 05:10:38;;;;;;;4.68;2.20;;;;;;;;;;6086794;23;20174;-89
2023/09/19 05:13:44;;;;;;;6.15;1.90;;;;;;;;;;6088521;23;20174;-89
2023/09/19 05:16:49;;;;;;;6.30;2.20;;;;;;;;;;6086833;23;20275;-87
2023/09/19 05:19:54;;;;;;;3.20;1.85;;;;;;;;;;6088278;23;20169;-86
2023/09/19 05:23:01;;;;;;;6.18;2.08;;;;;;;;;;6086645;23;20941;-89
2023/09/19 05:26:08;;;;;;;3.67;1.90;;;;;;;;;;6087053;23;20228;-88
2023/09/19 05:29:13;;;;;;;5.97;2.10;;;;;;;;;;6088900;23;20175;-87
2023/09/19 05:32:19;;;;;;;3.55;2.08;;;;;;;;;;6088859;23;20178;-90
2023/09/19 05:35:26;;;;;;;4.63;1.85;;;;;;;;;;6088048;23;20462;-87
2023/09/19 05:38:30;;;;;;;6.28;2.17;;;;;;;;;;6087891;23;20303;-86
2023/09/19 05:41:39;;;;;;;7.25;3.00;;;;;;;;;;6087130;23;20234;-89
2023/09/19 05:44:44;;;;;;;7.55;2.22;;;;;;;;;;6085704;23;20657;-86
2023/09/19 05:47:49;;;;;;;7.00;2.35;;;;;;;;;;6090625;23;20169;-89
2023/09/19 05:50:55;;;;;;;3.78;2.15;;;;;;;;;;6092103;23;20169;-89
2023/09/19 05:54:00;;;;;;;4.55;2.10;;;;;;;;;;6092483;23;20157;-90
2023/09/19 05:57:08;;;;;;;3.10;1.90;;;;;;;;;;6092880;23;20298;-88
2023/09/19 06:00:14;;;;;;;3.53;1.77;;;;;;;;;;6093112;23;20169;-87
2023/09/19 06:03:20;;;;;;;6.10;2.10;;;;;;;;;;6093095;23;20169;-88
2023/09/19 06:09:44;;;;;;;12.65;2.17;;;;;;;;;;6088093;23;20227;-90
2023/09/19 06:12:51;;;;;;;4.32;2.10;;;;;;;;;;6090656;23;20193;-87
2023/09/19 06:15:58;;;;;;;9.00;2.15;;;;;;;;;;6088643;23;20245;-86
2023/09/19 06:19:03;;;;;;;6.53;2.10;;;;;;;;;;6090923;23;20173;-88
2023/09/19 06:22:09;;;;;;;7.93;1.80;;;;;;;;;;6089208;23;20174;-91
2023/09/19 06:25:19;;;;;;;5.25;2.17;;;;;;;;;;6092054;23;20193;-88
2023/09/19 06:28:27;;;;;;;5.32;2.10;;;;;;;;;;6107510;23;20185;-90
2023/09/19 06:31:33;;;;;;;7.55;1.98;;;;;;;;;;6088341;23;20314;-88
2023/09/19 06:37:57;;;;;;;3.33;2.00;;;;;;;;;;6090053;23;20170;-89
2023/09/19 06:41:05;;;;;;;6.05;1.88;;;;;;;;;;6091172;23;20166;-91
2023/09/19 06:44:12;;;;;;;3.50;1.65;;;;;;;;;;6091541;23;20617;-89
2023/09/19 06:47:17;;;;;;;7.60;1.63;;;;;;;;;;6089766;23;20618;-88
2023/09/19 06:50:23;;;;;;;3.17;1.70;;;;;;;;;;6089911;23;20230;-88
2023/09/19 06:53:30;;;;;;;3.95;1.80;;;;;;;;;;6090295;23;20637;-89
2023/09/19 06:56:35;;;;;;;6.85;1.80;;;;;;;;;;6092206;23;20174;-88
2023/09/19 06:59:42;;;;;;;7.63;1.95;;;;;;;;;;6091050;23;20178;-91
2023/09/19 07:02:47;;;;;;;5.50;2.30;;;;;;;;;;6091227;23;20173;-87
2023/09/19 07:05:52;;;;;;;5.68;2.17;;;;;;;;;;6091963;23;20633;-90
2023/09/19 07:09:00;;;;;;;6.50;2.00;;;;;;;;;;6092464;23;20181;-89
2023/09/19 07:12:11;;;;;;;9.05;2.00;;;;;;;;;;6107592;23;20221;-89
2023/09/19 07:15:18;;;;;;;4.80;1.60;;;;;;;;;;6092515;23;20178;-92
2023/09/19 07:18:23;;;;;;;2.28;1.48;;;;;;;;;;6091445;23;20625;-87
2023/09/19 07:21:30;;;;;;;6.93;1.88;;;;;;;;;;6092140;23;20177;-91
2023/09/19 07:24:36;;;;;;;5.00;1.67;;;;;;;;;;6092589;23;20323;-90
2023/09/19 07:27:41;;;;;;;5.45;1.50;;;;;;;;;;6092202;23;20230;-87
2023/09/19 07:30:48;;;;;;;5.93;1.90;;;;;;;;;;6092617;23;20177;-89
2023/09/19 07:34:03;;;;;;;4.68;1.88;;;;;;;;;;6091600;23;20174;-89
2023/09/19 07:37:09;;;;;;;3.25;1.92;;;;;;;;;;6091743;23;20182;-88
2023/09/19 07:40:15;;;;;;;9.43;2.38;;;;;;;;;;6092535;23;20174;-90
2023/09/19 07:43:20;;;;;;;5.07;1.88;;;;;;;;;;6093607;23;20195;-89
2023/09/19 07:46:27;;;;;;;7.00;1.98;;;;;;;;;;6092388;23;20198;-88
2023/09/19 07:49:32;;;;;;;3.10;1.73;;;;;;;;;;6094702;23;20242;-89
2023/09/19 07:52:39;;;;;;;7.20;1.75;;;;;;;;;;6092078;23;20170;-89
2023/09/19 07:55:47;;;;;;;8.15;2.10;;;;;;;;;;6090216;23;20290;-88
2023/09/19 07:58:52;;;;;;;4.10;2.63;;;;;;;;;;6092237;23;20170;-87
2023/09/19 08:01:59;;;;;;;4.00;1.88;;;;;;;;;;6091613;23;20625;-87
2023/09/19 08:05:06;;;;;;;4.38;2.20;;;;;;;;;;6092052;23;20193;-89
2023/09/19 08:08:14;;;;;;;6.07;2.15;;;;;;;;;;6097372;23;20213;-88
2023/09/19 08:11:21;;;;;;;5.85;2.10;;;;;;;;;;6106219;23;20181;-87
2023/09/19 08:14:26;;;;;;;3.83;1.63;;;;;;;;;;6106461;23;20169;-87
2023/09/19 08:17:37;;;;;;;3.88;1.85;;;;;;;;;;6108924;23;20501;-88
2023/09/19 08:20:43;;;;;;;4.15;1.90;;;;;;;;;;6106797;23;20158;-89
2023/09/19 08:23:48;;;;;;;5.47;1.80;;;;;;;;;;6110852;23;20241;-90
2023/09/19 08:26:54;;;;;;;4.15;1.70;;;;;;;;;;6106999;23;20210;-90
2023/09/19 08:30:02;;;;;;;3.25;1.38;;;;;;;;;;6108043;23;20246;-90
2023/09/19 08:33:09;;;;;;;4.72;1.60;;;;;;;;;;6108793;23;20181;-87
2023/09/19 08:36:14;;;;;;;3.80;1.77;;;;;;;;;;6108915;23;20165;-86
2023/09/19 08:39:20;;;;;;;5.40;1.83;;;;;;;;;;6109318;23;20249;-91
2023/09/19 08:42:25;;;;;;;4.40;1.90;;;;;;;;;;6107416;23;20170;-89
2023/09/19 08:45:30;;;;;;;3.55;1.60;;;;;;;;;;6108164;23;20197;-90
2023/09/19 08:48:40;;;;;;;5.45;1.48;;;;;;;;;;6106442;23;20245;-89
2023/09/19 08:51:47;;;;;;;10.85;1.70;;;;;;;;;;6110800;23;20235;-88
2023/09/19 08:54:54;;;;;;;3.95;1.67;;;;;;;;;;6107498;23;20166;-88
2023/09/19 08:58:02;;;;;;;3.53;2.00;;;;;;;;;;6106864;23;20290;-90
2023/09/19 09:01:08;;;;;;;4.35;1.75;;;;;;;;;;6107115;23;20209;-90
2023/09/19 09:04:14;;;;;;;5.07;1.65;;;;;;;;;;6106418;23;20194;-86
2023/09/19 09:07:22;;;;;;;9.25;2.05;;;;;;;;;;6107821;23;20258;-86
2023/09/19 09:10:29;;;;;;;3.05;1.52;;;;;;;;;;6092269;23;20172;-88
2023/09/19 09:13:34;;;;;;;2.67;1.60;;;;;;;;;;6090860;23;20173;-88
2023/09/19 09:16:40;;;;;;;4.03;1.70;;;;;;;;;;6089096;23;20177;-89
2023/09/19 09:19:47;;;;;;;2.75;1.48;;;;;;;;;;6107131;23;20177;-89
2023/09/19 09:22:55;;;;;;;3.88;1.92;;;;;;;;;;6089845;23;20170;-89
2023/09/19 09:26:02;;;;;;;4.13;1.73;;;;;;;;;;6087513;23;20264;-87
2023/09/19 09:29:08;;;;;;;4.68;1.95;;;;;;;;;;6089440;23;20173;-88
2023/09/19 09:32:23;;;;;;;4.72;1.35;;;;;;;;;;6091174;23;20226;-91
2023/09/19 09:35:29;;;;;;;4.70;1.90;;;;;;;;;;6092789;23;20174;-86
2023/09/19 09:38:46;;;;;;;5.75;1.98;;;;;;;;;;6093508;23;20173;-90
2023/09/19 09:41:51;;;;;;;4.80;1.70;;;;;;;;;;6087594;23;20504;-90
2023/09/19 09:45:13;;;;;;;7.78;1.40;;;;;;;;;;6088957;23;20192;-90
2023/09/19 09:48:31;;;;;;;4.72;1.50;;;;;;;;;;6088185;23;20170;-87
2023/09/19 09:51:39;;;;;;;2.72;1.60;;;;;;;;;;6090110;23;20232;-90
2023/09/19 09:55:00;;;;;;;5.50;2.00;;;;;;;;;;6091529;23;20166;-88
2023/09/19 09:58:19;;;;;;;3.83;1.45;;;;;;;;;;6091478;23;20174;-89
2023/09/19 10:01:26;;;;;;;4.05;1.73;;;;;;;;;;6091328;23;20174;-88
2023/09/19 10:07:53;;;;;;;3.88;1.58;;;;;;;;;;6095367;23;20206;-89
2023/09/19 10:11:05;;;;;;;6.47;1.80;;;;;;;;;;6106989;23;20249;-88
2023/09/19 10:14:12;;;;;;;2.70;1.40;;;;;;;;;;6105783;23;20246;-86
2023/09/19 10:20:38;;;;;;;2.33;1.30;;;;;;;;;;6106235;23;20216;-88
2023/09/19 10:23:46;;;;;;;5.10;1.75;;;;;;;;;;6107243;23;20233;-89
2023/09/19 10:26:51;;;;;;;5.22;1.73;;;;;;;;;;6108160;23;20201;-87
2023/09/19 10:29:59;;;;;;;3.47;1.50;;;;;;;;;;6110863;23;20169;-88
2023/09/19 10:33:06;;;;;;;10.73;4.53;;;;;;;;;;6106683;23;20207;-88
2023/09/19 10:36:12;;;;;;;4.00;1.60;;;;;;;;;;6108807;23;20173;-89
2023/09/19 10:39:19;;;;;;;4.68;1.80;;;;;;;;;;6108703;23;20177;-89
2023/09/19 10:42:28;;;;;;;5.60;1.83;;;;;;;;;;6108560;23;20220;-92
2023/09/19 10:45:35;;;;;;;4.25;1.92;;;;;;;;;;6105745;23;20701;-89
2023/09/19 10:48:43;;;;;;;3.03;1.67;;;;;;;;;;6108430;23;20166;-90
2023/09/19 10:51:50;;;;;;;3.42;1.77;;;;;;;;;;6107589;23;20175;-89
2023/09/19 10:54:59;;;;;;;5.03;1.58;;;;;;;;;;6107878;23;20629;-89
2023/09/19 10:58:10;;;;;;;1.70;1.20;;;;;;;;;;6106267;23;20566;-88
2023/09/19 11:01:15;;;;;;;2.70;1.27;;;;;;;;;;6105243;23;20170;-87
2023/09/19 11:04:24;;;;;;;3.75;1.73;;;;;;;;;;6107894;23;20174;-91
2023/09/19 11:07:30;;;;;;;5.53;1.50;;;;;;;;;;6107521;23;20196;-89
2023/09/19 11:10:49;;;;;;;3.38;1.33;;;;;;;;;;6091161;23;20213;-87
2023/09/19 11:14:12;;;;;;;3.05;1.20;;;;;;;;;;6090049;23;20214;-90
2023/09/19 11:17:48;;;;;;;5.40;1.45;;;;;;;;;;6092591;23;20181;-91
2023/09/19 11:21:14;;;;;;;5.15;1.67;;;;;;;;;;6092890;23;20170;-89
2023/09/19 11:24:36;;;;;;;2.42;1.45;;;;;;;;;;6094053;23;20625;-90
2023/09/19 11:28:14;;;;;;;2.55;1.10;;;;;;;;;;6093614;23;20170;-89
2023/09/19 11:31:55;;;;;;;2.53;1.13;;;;;;;;;;6095395;23;20217;-90
2023/09/19 11:35:09;;;;;;;2.08;1.15;;;;;;;;;;6089011;23;20246;-91
2023/09/19 11:38:16;;;;;;;5.50;1.40;;;;;;;;;;6091774;23;20561;-88
2023/09/19 11:41:40;;;;;;;3.28;1.20;;;;;;;;;;6092454;23;20180;-88
2023/09/19 11:44:51;;;;;;;4.40;1.40;;;;;;;;;;6091594;23;20174;-89
2023/09/19 11:47:58;;;;;;;2.20;1.17;;;;;;;;;;6091436;23;20194;-91
2023/09/19 11:51:07;;;;;;;8.63;1.40;;;;;;;;;;6089923;23;20174;-88
2023/09/19 11:54:18;;;;;;;6.40;1.80;;;;;;;;;;6090861;23;20181;-89
2023/09/19 11:57:25;;;;;;;5.43;2.90;;;;;;;;;;6091423;23;20265;-87
2023/09/19 12:00:33;;;;;;;4.22;1.83;;;;;;;;;;6090883;23;20173;-88
2023/09/19 12:03:41;;;;;;;1.52;1.00;;;;;;;;;;6090555;23;20178;-89
2023/09/19 12:06:58;;;;;;;2.65;1.05;;;;;;;;;;6092423;23;20193;-88
2023/09/19 12:10:08;;;;;;;2.83;1.20;;;;;;;;;;6091582;23;20174;-88
2023/09/19 12:13:17;;;;;;;3.03;1.17;;;;;;;;;;6090383;23;20178;-91
2023/09/19 12:16:24;;;;;;;2.83;1.00;;;;;;;;;;6090323;23;20561;-90
2023/09/19 12:19:29;;;;;;;1.50;0.88;;;;;;;;;;6089299;23;20174;-87
2023/09/19 12:22:40;;;;;;;6.07;1.60;;;;;;;;;;6090759;23;20254;-90
2023/09/19 12:25:47;;;;;;;6.40;1.50;;;;;;;;;;6090311;23;20250;-88
2023/09/19 12:28:52;;;;;;;2.65;1.17;;;;;;;;;;6089937;23;20218;-89
2023/09/19 12:32:06;;;;;;;3.42;1.30;;;;;;;;;;6092452;23;20170;-88
2023/09/19 12:35:11;;;;;;;4.18;1.77;;;;;;;;;;6090698;23;20246;-89
2023/09/19 12:38:24;;;;;;;4.22;1.30;;;;;;;;;;6090170;23;20388;-90
2023/09/19 12:41:30;;;;;;;3.83;1.27;;;;;;;;;;6108340;23;20393;-89
2023/09/19 12:44:36;;;;;;;4.07;1.20;;;;;;;;;;6089469;23;20191;-89
2023/09/19 12:48:03;;;;;;;5.75;1.40;;;;;;;;;;6093793;23;20202;-87
2023/09/19 12:51:12;;;;;;;6.53;1.92;;;;;;;;;;6093602;23;20183;-90
2023/09/19 12:54:17;;;;;;;5.18;1.60;;;;;;;;;;6092572;23;20193;-86
2023/09/19 12:57:26;;;;;;;3.95;1.70;;;;;;;;;;6092149;23;20227;-89
2023/09/19 13:00:35;;;;;;;2.72;1.40;;;;;;;;;;6092977;23;20181;-87
2023/09/19 13:07:01;;;;;;;6.57;2.72;;;;;;;;;;6091712;23;20237;-88
2023/09/19 13:10:08;;;;;;;2.42;1.35;;;;;;;;;;6091479;23;20217;-89
2023/09/19 13:13:27;;;;;;;2.58;1.20;;;;;;;;;;6088908;23;20186;-90
2023/09/19 13:16:32;;;;;;;2.85;1.15;;;;;;;;;;6087759;23;20186;-87
2023/09/19 13:19:40;;;;;;;7.88;2.53;;;;;;;;;;6089039;23;20174;-89
2023/09/19 13:22:49;;;;;;;2.28;1.30;;;;;;;;;;6089621;23;20201;-88
2023/09/19 13:25:54;;;;;;;6.72;1.50;;;;;;;;;;6090099;23;20197;-90
2023/09/19 13:28:59;;;;;;;5.50;1.20;;;;;;;;;;6089415;23;20182;-90
2023/09/19 13:32:05;;;;;;;5.45;1.33;;;;;;;;;;6088137;23;20668;-90
2023/09/19 13:35:12;;;;;;;4.65;1.77;;;;;;;;;;6090902;23;20174;-88
2023/09/19 13:38:18;;;;;;;4.78;1.55;;;;;;;;;;6089376;23;20253;-92
2023/09/19 13:41:23;;;;;;;3.22;1.35;;;;;;;;;;6091012;23;20170;-89
2023/09/19 13:44:29;;;;;;;3.35;1.40;;;;;;;;;;6089935;23;20166;-89
2023/09/19 13:47:37;;;;;;;1.48;1.10;;;;;;;;;;6092107;23;20209;-91
2023/09/19 13:50:44;;;;;;;3.00;1.27;;;;;;;;;;6092550;23;20590;-90
2023/09/19 13:53:49;;;;;;;3.28;1.25;;;;;;;;;;6089495;23;20173;-89
2023/09/19 13:56:54;;;;;;;2.88;1.30;;;;;;;;;;6103137;23;20193;-89
2023/09/19 13:59:58;;;;;;;2.78;1.27;;;;;;;;;;6089917;23;20177;-90
2023/09/19 14:03:04;;;;;;;2.97;1.17;;;;;;;;;;6090072;23;20169;-90
2023/09/19 14:06:15;;;;;;;2.20;1.20;;;;;;;;;;6089866;23;20192;-88
2023/09/19 14:09:23;;;;;;;1.67;1.00;;;;;;;;;;6092239;23;20168;-92
2023/09/19 14:12:28;;;;;;;3.08;1.40;;;;;;;;;;6088589;23;20289;-89
2023/09/19 14:15:34;;;;;;;3.90;1.35;;;;;;;;;;6088639;23;20169;-91
2023/09/19 14:18:40;;;;;;;2.65;1.00;;;;;;;;;;6090523;23;20174;-90
2023/09/19 14:21:46;;;;;;;2.88;1.00;;;;;;;;;;6091054;23;20169;-90
2023/09/19 14:24:52;;;;;;;3.15;0.95;;;;;;;;;;6090822;23;20169;-90
2023/09/19 14:27:57;;;;;;;2.15;1.20;;;;;;;;;;6089786;23;20233;-89
2023/09/19 14:31:06;;;;;;;3.00;1.15;;;;;;;;;;6091773;23;20168;-88
2023/09/19 14:34:17;;;;;;;1.40;0.70;;;;;;;;;;6091487;23;20185;-89
2023/09/19 14:37:24;;;;;;;1.73;1.00;;;;;;;;;;6109935;23;20178;-91
2023/09/19 14:40:29;;;;;;;5.60;1.73;;;;;;;;;;6092254;23;20218;-89
2023/09/19 14:43:34;;;;;;;3.00;1.00;;;;;;;;;;6092809;23;20177;-87
2023/09/19 14:46:39;;;;;;;3.00;1.52;;;;;;;;;;6090239;23;20198;-89
2023/09/19 14:49:44;;;;;;;1.88;1.33;;;;;;;;;;6091284;23;20618;-90
2023/09/19 14:52:51;;;;;;;3.47;1.08;;;;;;;;;;6091410;23;20202;-90
2023/09/19 14:56:05;;;;;;;2.92;1.15;;;;;;;;;;6093541;23;20259;-86
2023/09/19 14:59:10;;;;;;;3.10;1.10;;;;;;;;;;6089498;23;20956;-87
2023/09/19 15:02:16;;;;;;;2.33;1.20;;;;;;;;;;6089782;23;20190;-88
2023/09/19 15:05:22;;;;;;;2.70;1.20;;;;;;;;;;6105141;23;20227;-90
2023/09/19 15:08:29;;;;;;;2.92;0.93;;;;;;;;;;6104606;23;20190;-92
2023/09/19 15:11:34;;;;;;;1.80;1.20;;;;;;;;;;6108001;23;20177;-89
2023/09/19 15:14:39;;;;;;;2.20;0.95;;;;;;;;;;6112208;23;20195;-88
2023/09/19 15:17:45;;;;;;;2.30;0.95;;;;;;;;;;6106602;23;20153;-89
2023/09/19 15:20:50;;;;;;;4.90;1.73;;;;;;;;;;6107326;23;20174;-90
2023/09/19 15:23:57;;;;;;;5.00;1.10;;;;;;;;;;6107214;23;20303;-88
2023/09/19 15:27:02;;;;;;;3.03;1.40;;;;;;;;;;6107053;23;20271;-89
2023/09/19 15:30:08;;;;;;;3.33;1.20;;;;;;;;;;6124827;23;20170;-89
2023/09/19 15:33:13;;;;;;;2.75;1.30;;;;;;;;;;6109031;23;20177;-88
2023/09/19 15:36:20;;;;;;;3.15;1.40;;;;;;;;;;6108554;23;20169;-91
2023/09/19 15:39:27;;;;;;;4.00;1.27;;;;;;;;;;6108537;23;20218;-87
2023/09/19 15:42:33;;;;;;;5.32;1.35;;;;;;;;;;6109718;23;20173;-91
2023/09/19 15:45:38;;;;;;;2.58;1.20;;;;;;;;;;6109975;23;20602;-88
2023/09/19 15:48:45;;;;;;;4.93;1.10;;;;;;;;;;6110428;23;20249;-89
2023/09/19 15:51:51;;;;;;;5.45;1.20;;;;;;;;;;6109281;23;20170;-89
2023/09/19 15:54:56;;;;;;;1.90;1.00;;;;;;;;;;6111835;23;20175;-89
2023/09/19 15:58:06;;;;;;;1.88;1.05;;;;;;;;;;6113740;23;20170;-90
2023/09/19 16:01:11;;;;;;;2.13;1.20;;;;;;;;;;6113937;23;20174;-89
2023/09/19 16:04:16;;;;;;;4.25;1.48;;;;;;;;;;6113389;23;20242;-88
2023/09/19 16:07:22;;;;;;;1.95;1.00;;;;;;;;;;6110267;23;20341;-90
2023/09/19 16:10:31;;;;;;;4.30;1.20;;;;;;;;;;6092789;23;20295;-89
2023/09/19 16:13:36;;;;;;;6.22;1.42;;;;;;;;;;6094030;23;20214;-89
2023/09/19 16:16:41;;;;;;;4.22;1.38;;;;;;;;;;6091799;23;20165;-89
2023/09/19 16:19:47;;;;;;;2.97;1.30;;;;;;;;;;6093327;23;20211;-91
2023/09/19 16:22:52;;;;;;;2.75;1.27;;;;;;;;;;6092392;23;20173;-89
2023/09/19 16:26:12;;;;;;;2.40;1.30;;;;;;;;;;6095127;23;20158;-90
2023/09/19 16:29:18;;;;;;;6.10;1.58;;;;;;;;;;6094169;23;20200;-89
2023/09/19 16:32:23;;;;;;;2.35;1.15;;;;;;;;;;6090559;23;20174;-90
2023/09/19 16:35:28;;;;;;;1.67;0.98;;;;;;;;;;6089737;23;20222;-89
2023/09/19 16:38:32;;;;;;;9.13;1.10;;;;;;;;;;6088451;23;20170;-88
2023/09/19 16:41:39;;;;;;;3.45;1.50;;;;;;;;;;6090003;23;20174;-91
2023/09/19 16:44:45;;;;;;;3.30;1.50;;;;;;;;;;6092458;23;20173;-89
2023/09/19 16:47:50;;;;;;;4.10;1.33;;;;;;;;;;6092927;23;20216;-92
2023/09/19 16:50:55;;;;;;;5.82;2.05;;;;;;;;;;6094884;23;20170;-93
2023/09/19 16:54:01;;;;;;;4.90;1.48;;;;;;;;;;6095999;23;20189;-88
2023/09/19 16:57:07;;;;;;;3.70;1.67;;;;;;;;;;6095284;23;20669;-90
2023/09/19 17:00:17;;;;;;;5.18;1.30;;;;;;;;;;6112100;23;20231;-88
2023/09/19 17:03:23;;;;;;;7.80;1.73;;;;;;;;;;6095166;23;20178;-89
2023/09/19 17:06:30;;;;;;;3.78;1.60;;;;;;;;;;6091405;23;20185;-88
2023/09/19 17:09:35;;;;;;;4.13;1.88;;;;;;;;;;6094192;23;20197;-88
2023/09/19 17:12:41;;;;;;;4.78;1.70;;;;;;;;;;6093277;23;20173;-88
2023/09/19 17:15:47;;;;;;;3.63;1.80;;;;;;;;;;6093972;23;20173;-89
2023/09/19 17:18:54;;;;;;;4.63;2.20;;;;;;;;;;6094024;23;20166;-91
2023/09/19 17:22:00;;;;;;;5.07;1.70;;;;;;;;;;6109740;23;20178;-88
2023/09/19 17:25:06;;;;;;;5.07;1.70;;;;;;;;;;6093376;23;20170;-89
2023/09/19 17:28:13;;;;;;;4.68;1.58;;;;;;;;;;6093240;23;20248;-91
2023/09/19 17:31:21;;;;;;;3.80;1.90;;;;;;;;;;6094262;23;20239;-91
2023/09/19 17:34:26;;;;;;;6.38;2.65;;;;;;;;;;6090834;23;20166;-91
2023/09/19 17:37:34;;;;;;;3.95;1.67;;;;;;;;;;6099775;23;20230;-92
2023/09/19 17:40:40;;;;;;;6.18;1.55;;;;;;;;;;6091914;23;20174;-89
2023/09/19 17:43:47;;;;;;;3.90;1.50;;;;;;;;;;6092898;23;20249;-90
2023/09/19 17:46:52;;;;;;;7.20;1.60;;;;;;;;;;6094160;23;20174;-90
2023/09/19 17:49:57;;;;;;;4.78;1.77;;;;;;;;;;6094875;23;20174;-88
2023/09/19 17:53:02;;;;;;;4.63;2.63;;;;;;;;;;6093609;23;20620;-90
2023/09/19 17:56:11;;;;;;;5.43;3.00;;;;;;;;;;6093594;23;20170;-88
2023/09/19 17:59:17;;;;;;;3.95;2.20;;;;;;;;;;6093389;23;20166;-88
2023/09/19 18:02:24;;;;;;;7.70;2.08;;;;;;;;;;6092092;23;20170;-87
2023/09/19 18:05:30;;;;;;;4.55;1.95;;;;;;;;;;6092452;23;20174;-90
2023/09/19 18:08:35;;;;;;;4.93;2.03;;;;;;;;;;6106332;23;20280;-89
2023/09/19 18:11:42;;;;;;;4.05;2.08;;;;;;;;;;6111472;23;20170;-89
2023/09/19 18:14:50;;;;;;;5.50;2.28;;;;;;;;;;6113289;23;20154;-85
2023/09/19 18:17:55;;;;;;;3.28;1.70;;;;;;;;;;6112951;23;20198;-90
2023/09/19 18:21:23;;;;;;;2.42;1.77;;;;;;;;;;6114553;23;20233;-87
2023/09/19 18:24:35;;;;;;;9.43;1.95;;;;;;;;;;6114281;23;20149;-90
2023/09/19 18:27:41;;;;;;;4.95;1.98;;;;;;;;;;6115583;23;20238;-90
2023/09/19 18:30:49;;;;;;;4.43;2.33;;;;;;;;;;6114958;23;20178;-91
2023/09/19 18:33:54;;;;;;;5.88;2.20;;;;;;;;;;6114184;23;20169;-87
2023/09/19 18:37:00;;;;;;;5.43;2.00;;;;;;;;;;6113676;23;20186;-90
2023/09/19 18:40:15;;;;;;;3.47;1.98;;;;;;;;;;6118620;23;20239;-88
2023/09/19 19:24:26;;;;;;;4.00;2.20;;;;;;;;;;6118879;23;20224;-91
2023/09/19 19:27:32;;;;;;;3.75;2.22;;;;;;;;;;6131278;23;20664;-90
2023/09/19 19:30:45;;;;;;;8.23;2.20;;;;;;;;;;6114596;23;20187;-92
2023/09/19 19:33:54;;;;;;;39.88;16.02;;;;;;;;;;6130009;23;20165;-90
2023/09/19 19:36:59;;;;;;;7.50;4.10;;;;;;;;;;6129696;23;20189;-89
2023/09/19 19:40:10;;;;;;;9.80;2.60;;;;;;;;;;6131755;23;20177;-89
2023/09/19 19:43:15;;;;;;;7.32;3.40;;;;;;;;;;6113945;23;20493;-91